sensor_id;sensor_type;location;lat;lon;timestamp;pressure;altitude;pressure_sealevel;temperature;humidity
8627;BME280;4351;51.422;6.794;2023-05-03T00:01:18;102724.50;;;6.35;100.00
8627;BME280;4351;51.422;6.794;2023-05-03T00:03:51;102719.06;;;6.41;100.00
8627;BME280;4351;51.422;6.794;2023-05-03T00:06:36;102726.25;;;6.38;100.00
8627;BME280;4351;51.422;6.794;2023-05-03T00:09:04;102727.16;;;6.38;100.00
8627;BME280;4351;51.422;6.794;2023-05-03T00:11:32;102726.28;;;6.36;100.00
8627;BME280;4351;51.422;6.794;2023-05-03T00:14:00;102730.75;;;6.36;100.00
8627;BME280;4351;51.422;6.794;2023-05-03T00:16:28;102728.13;;;6.29;100.00
8627;BME280;4351;51.422;6.794;2023-05-03T00:18:56;102731.78;;;6.19;100.00
8627;BME280;4351;51.422;6.794;2023-05-03T00:21:25;102722.97;;;6.06;100.00
8627;BME280;4351;51.422;6.794;2023-05-03T00:23:55;102724.69;;;6.15;100.00
8627;BME280;4351;51.422;6.794;2023-05-03T00:26:23;102729.19;;;6.14;100.00
8627;BME280;4351;51.422;6.794;2023-05-03T00:28:51;102729.13;;;6.19;100.00
8627;BME280;4351;51.422;6.794;2023-05-03T00:31:19;102725.53;;;6.20;100.00
8627;BME280;4351;51.422;6.794;2023-05-03T00:33:47;102721.94;;;6.23;100.00
8627;BME280;4351;51.422;6.794;2023-05-03T00:36:19;102729.97;;;6.21;100.00
8627;BME280;4351;51.422;6.794;2023-05-03T00:38:50;102727.41;;;6.13;100.00
8627;BME280;4351;51.422;6.794;2023-05-03T00:41:21;102725.63;;;6.11;100.00
8627;BME280;4351;51.422;6.794;2023-05-03T00:43:50;102737.31;;;6.03;100.00
8627;BME280;4351;51.422;6.794;2023-05-03T00:46:18;102735.56;;;5.96;100.00
8627;BME280;4351;51.422;6.794;2023-05-03T00:48:47;102737.38;;;5.91;100.00
8627;BME280;4351;51.422;6.794;2023-05-03T00:51:16;102726.59;;;6.00;100.00
8627;BME280;4351;51.422;6.794;2023-05-03T00:53:46;102723.88;;;6.06;100.00
8627;BME280;4351;51.422;6.794;2023-05-03T00:56:17;102731.09;;;5.96;100.00
8627;BME280;4351;51.422;6.794;2023-05-03T00:58:48;102726.63;;;5.98;100.00
8627;BME280;4351;51.422;6.794;2023-05-03T01:01:17;102731.19;;;5.85;100.00
8627;BME280;4351;51.422;6.794;2023-05-03T01:03:46;102729.34;;;5.94;100.00
8627;BME280;4351;51.422;6.794;2023-05-03T01:06:21;102724.81;;;5.99;100.00
8627;BME280;4351;51.422;6.794;2023-05-03T01:08:58;102726.59;;;6.03;100.00
8627;BME280;4351;51.422;6.794;2023-05-03T01:11:33;102724.78;;;6.05;100.00
8627;BME280;4351;51.422;6.794;2023-05-03T01:14:11;102731.16;;;5.92;100.00
8627;BME280;4351;51.422;6.794;2023-05-03T01:16:46;102739.19;;;5.92;100.00
8627;BME280;4351;51.422;6.794;2023-05-03T01:19:27;102731.16;;;5.92;100.00
8627;BME280;4351;51.422;6.794;2023-05-03T01:22:14;102731.09;;;5.95;100.00
8627;BME280;4351;51.422;6.794;2023-05-03T01:24:46;102732.84;;;5.99;100.00
8627;BME280;4351;51.422;6.794;2023-05-03T01:27:19;102733.81;;;5.93;100.00
8627;BME280;4351;51.422;6.794;2023-05-03T01:29:46;102732.03;;;5.91;100.00
8627;BME280;4351;51.422;6.794;2023-05-03T01:32:18;102730.22;;;5.93;100.00
8627;BME280;4351;51.422;6.794;2023-05-03T01:34:54;102735.59;;;5.93;100.00
8627;BME280;4351;51.422;6.794;2023-05-03T01:37:26;102733.78;;;5.96;100.00
8627;BME280;4351;51.422;6.794;2023-05-03T01:39:58;102732.03;;;5.94;100.00
8627;BME280;4351;51.422;6.794;2023-05-03T01:42:29;102735.56;;;5.96;100.00
8627;BME280;4351;51.422;6.794;2023-05-03T01:44:57;102732.94;;;5.90;100.00
8627;BME280;4351;51.422;6.794;2023-05-03T01:47:26;102736.56;;;5.84;100.00
8627;BME280;4351;51.422;6.794;2023-05-03T01:49:54;102741.94;;;5.82;100.00
8627;BME280;4351;51.422;6.794;2023-05-03T01:52:22;102743.78;;;5.75;100.00
8627;BME280;4351;51.422;6.794;2023-05-03T01:54:50;102746.41;;;5.83;100.00
8627;BME280;4351;51.422;6.794;2023-05-03T01:57:18;102744.56;;;5.89;100.00
8627;BME280;4351;51.422;6.794;2023-05-03T01:59:47;102754.28;;;6.01;100.00
8627;BME280;4351;51.422;6.794;2023-05-03T02:02:15;102748.00;;;6.06;100.00
8627;BME280;4351;51.422;6.794;2023-05-03T02:04:43;102760.50;;;6.01;100.00
8627;BME280;4351;51.422;6.794;2023-05-03T02:07:11;102764.13;;;5.98;100.00
8627;BME280;4351;51.422;6.794;2023-05-03T02:09:39;102764.97;;;6.05;100.00
8627;BME280;4351;51.422;6.794;2023-05-03T02:12:07;102765.94;;;5.96;100.00
8627;BME280;4351;51.422;6.794;2023-05-03T02:14:35;102764.13;;;5.97;100.00
8627;BME280;4351;51.422;6.794;2023-05-03T02:17:04;102764.09;;;6.03;100.00
8627;BME280;4351;51.422;6.794;2023-05-03T02:19:34;102767.66;;;6.05;100.00
8627;BME280;4351;51.422;6.794;2023-05-03T02:22:01;102771.34;;;5.92;100.00
8627;BME280;4351;51.422;6.794;2023-05-03T02:24:29;102775.84;;;5.85;100.00
8627;BME280;4351;51.422;6.794;2023-05-03T02:27:01;102783.00;;;5.84;100.00
8627;BME280;4351;51.422;6.794;2023-05-03T02:29:30;102786.63;;;5.75;100.00
8627;BME280;4351;51.422;6.794;2023-05-03T02:32:00;102776.75;;;5.85;100.00
8627;BME280;4351;51.422;6.794;2023-05-03T02:34:32;102785.63;;;5.89;100.00
8627;BME280;4351;51.422;6.794;2023-05-03T02:37:01;102790.25;;;5.68;100.00
8627;BME280;4351;51.422;6.794;2023-05-03T02:39:30;102793.84;;;5.67;100.00
8627;BME280;4351;51.422;6.794;2023-05-03T02:41:58;102789.44;;;5.55;100.00
8627;BME280;4351;51.422;6.794;2023-05-03T02:44:27;102796.56;;;5.61;100.00
8627;BME280;4351;51.422;6.794;2023-05-03T02:46:57;102791.19;;;5.62;100.00
8627;BME280;4351;51.422;6.794;2023-05-03T02:49:26;102788.50;;;5.62;100.00
8627;BME280;4351;51.422;6.794;2023-05-03T02:51:55;102785.81;;;5.67;100.00
8627;BME280;4351;51.422;6.794;2023-05-03T02:54:24;102794.78;;;5.61;100.00
8627;BME280;4351;51.422;6.794;2023-05-03T02:56:52;102788.53;;;5.58;100.00
8627;BME280;4351;51.422;6.794;2023-05-03T02:59:20;102785.03;;;5.52;100.00
8627;BME280;4351;51.422;6.794;2023-05-03T03:01:49;102784.16;;;5.43;100.00
8627;BME280;4351;51.422;6.794;2023-05-03T03:04:17;102784.13;;;5.49;100.00
8627;BME280;4351;51.422;6.794;2023-05-03T03:06:45;102777.84;;;5.56;100.00
8627;BME280;4351;51.422;6.794;2023-05-03T03:09:15;102777.81;;;5.61;100.00
8627;BME280;4351;51.422;6.794;2023-05-03T03:11:44;102765.25;;;5.72;100.00
8627;BME280;4351;51.422;6.794;2023-05-03T03:14:14;102767.06;;;5.67;100.00
8627;BME280;4351;51.422;6.794;2023-05-03T03:16:41;102763.56;;;5.54;100.00
8627;BME280;4351;51.422;6.794;2023-05-03T03:19:10;102763.50;;;5.65;100.00
8627;BME280;4351;51.422;6.794;2023-05-03T03:21:39;102757.25;;;5.64;100.00
8627;BME280;4351;51.422;6.794;2023-05-03T03:24:07;102753.63;;;5.69;100.00
8627;BME280;4351;51.422;6.794;2023-05-03T03:26:37;102745.63;;;5.70;100.00
8627;BME280;4351;51.422;6.794;2023-05-03T03:29:05;102753.63;;;5.69;100.00
8627;BME280;4351;51.422;6.794;2023-05-03T03:31:38;102746.50;;;5.72;100.00
8627;BME280;4351;51.422;6.794;2023-05-03T03:34:07;102749.16;;;5.72;100.00
8627;BME280;4351;51.422;6.794;2023-05-03T03:36:35;102754.59;;;5.63;100.00
8627;BME280;4351;51.422;6.794;2023-05-03T03:39:04;102749.94;;;5.84;100.00
8627;BME280;4351;51.422;6.794;2023-05-03T03:41:34;102733.84;;;5.89;100.00
8627;BME280;4351;51.422;6.794;2023-05-03T03:44:05;102740.09;;;5.89;100.00
8627;BME280;4351;51.422;6.794;2023-05-03T03:46:33;102735.59;;;5.91;100.00
8627;BME280;4351;51.422;6.794;2023-05-03T03:49:01;102731.19;;;5.87;100.00
8627;BME280;4351;51.422;6.794;2023-05-03T03:51:30;102741.06;;;5.77;100.00
8627;BME280;4351;51.422;6.794;2023-05-03T03:53:58;102730.28;;;5.90;100.00
8627;BME280;4351;51.422;6.794;2023-05-03T03:56:31;102735.53;;;5.99;100.00
8627;BME280;4351;51.422;6.794;2023-05-03T03:58:59;102731.19;;;5.87;100.00
8627;BME280;4351;51.422;6.794;2023-05-03T04:01:29;102726.63;;;5.97;100.00
8627;BME280;4351;51.422;6.794;2023-05-03T04:03:57;102713.25;;;5.94;100.00
8627;BME280;4351;51.422;6.794;2023-05-03T04:06:26;102714.09;;;5.99;100.00
8627;BME280;4351;51.422;6.794;2023-05-03T04:08:55;102706.06;;;5.97;100.00
8627;BME280;4351;51.422;6.794;2023-05-03T04:11:23;102714.19;;;5.88;100.00
8627;BME280;4351;51.422;6.794;2023-05-03T04:13:57;102712.28;;;6.01;100.00
8627;BME280;4351;51.422;6.794;2023-05-03T04:16:25;102714.06;;;6.07;100.00
8627;BME280;4351;51.422;6.794;2023-05-03T04:18:55;102719.41;;;6.04;100.00
8627;BME280;4351;51.422;6.794;2023-05-03T04:21:22;102730.22;;;5.93;100.00
8627;BME280;4351;51.422;6.794;2023-05-03T04:23:50;102739.97;;;6.02;100.00
8627;BME280;4351;51.422;6.794;2023-05-03T04:26:19;102748.00;;;6.06;100.00
8627;BME280;4351;51.422;6.794;2023-05-03T04:29:02;102753.34;;;6.09;100.00
8627;BME280;4351;51.422;6.794;2023-05-03T04:31:31;102758.72;;;6.06;100.00
8627;BME280;4351;51.422;6.794;2023-05-03T04:34:01;102763.22;;;6.00;100.00
8627;BME280;4351;51.422;6.794;2023-05-03T04:36:30;102753.38;;;6.03;100.00
8627;BME280;4351;51.422;6.794;2023-05-03T04:38:58;102758.78;;;5.95;100.00
8627;BME280;4351;51.422;6.794;2023-05-03T04:41:26;102759.66;;;5.97;100.00
8627;BME280;4351;51.422;6.794;2023-05-03T04:43:55;102760.56;;;5.98;100.00
8627;BME280;4351;51.422;6.794;2023-05-03T04:46:23;102755.13;;;6.04;100.00
8627;BME280;4351;51.422;6.794;2023-05-03T04:48:52;102767.66;;;6.02;100.00
8627;BME280;4351;51.422;6.794;2023-05-03T04:51:22;102766.81;;;5.98;100.00
8627;BME280;4351;51.422;6.794;2023-05-03T04:53:52;102760.53;;;6.07;100.00
8627;BME280;4351;51.422;6.794;2023-05-03T04:56:21;102764.06;;;6.09;100.00
8627;BME280;4351;51.422;6.794;2023-05-03T04:58:59;102758.63;;;6.17;100.00
8627;BME280;4351;51.422;6.794;2023-05-03T05:01:27;102755.03;;;6.20;100.00
8627;BME280;4351;51.422;6.794;2023-05-03T05:03:59;102752.31;;;6.25;100.00
8627;BME280;4351;51.422;6.794;2023-05-03T05:06:35;102755.91;;;6.22;100.00
8627;BME280;4351;51.422;6.794;2023-05-03T05:09:05;102751.41;;;6.24;100.00
8627;BME280;4351;51.422;6.794;2023-05-03T05:11:34;102754.00;;;6.34;100.00
8627;BME280;4351;51.422;6.794;2023-05-03T05:14:02;102761.19;;;6.31;100.00
8627;BME280;4351;51.422;6.794;2023-05-03T05:16:31;102770.91;;;6.39;100.00
8627;BME280;4351;51.422;6.794;2023-05-03T05:18:59;102769.13;;;6.42;100.00
8627;BME280;4351;51.422;6.794;2023-05-03T05:21:29;102781.56;;;6.48;100.00
8627;BME280;4351;51.422;6.794;2023-05-03T05:23:59;102780.56;;;6.60;100.00
8627;BME280;4351;51.422;6.794;2023-05-03T05:26:27;102790.31;;;6.66;100.00
8627;BME280;4351;51.422;6.794;2023-05-03T05:28:55;102792.13;;;6.64;100.00
8627;BME280;4351;51.422;6.794;2023-05-03T05:31:24;102796.34;;;6.85;100.00
8627;BME280;4351;51.422;6.794;2023-05-03T05:33:52;102795.38;;;6.91;100.00
8627;BME280;4351;51.422;6.794;2023-05-03T05:36:21;102795.34;;;6.94;100.00
8627;BME280;4351;51.422;6.794;2023-05-03T05:38:50;102794.34;;;7.03;100.00
8627;BME280;4351;51.422;6.794;2023-05-03T05:41:19;102789.78;;;7.10;100.00
8627;BME280;4351;51.422;6.794;2023-05-03T05:43:47;102793.31;;;7.13;100.00
8627;BME280;4351;51.422;6.794;2023-05-03T05:46:15;102794.13;;;7.20;100.00
8627;BME280;4351;51.422;6.794;2023-05-03T05:48:46;102785.00;;;7.34;100.00
8627;BME280;4351;51.422;6.794;2023-05-03T05:51:17;102790.25;;;7.42;100.00
8627;BME280;4351;51.422;6.794;2023-05-03T05:53:46;102801.19;;;7.28;100.00
8627;BME280;4351;51.422;6.794;2023-05-03T05:56:14;102800.19;;;7.36;100.00
8627;BME280;4351;51.422;6.794;2023-05-03T05:58:43;102798.38;;;7.35;100.00
8627;BME280;4351;51.422;6.794;2023-05-03T06:01:12;102801.91;;;7.41;100.00
8627;BME280;4351;51.422;6.794;2023-05-03T06:03:40;102796.25;;;7.59;100.00
8627;BME280;4351;51.422;6.794;2023-05-03T06:06:09;102799.00;;;7.56;100.00
8627;BME280;4351;51.422;6.794;2023-05-03T06:08:37;102801.47;;;7.70;100.00
8627;BME280;4351;51.422;6.794;2023-05-03T06:11:04;102801.56;;;7.64;100.00
8627;BME280;4351;51.422;6.794;2023-05-03T06:13:33;102812.97;;;7.79;100.00
8627;BME280;4351;51.422;6.794;2023-05-03T06:16:07;102818.34;;;7.79;100.00
8627;BME280;4351;51.422;6.794;2023-05-03T06:18:34;102817.34;;;7.86;100.00
8627;BME280;4351;51.422;6.794;2023-05-03T06:21:03;102814.38;;;8.03;100.00
8627;BME280;4351;51.422;6.794;2023-05-03T06:23:31;102814.56;;;7.92;100.00
8627;BME280;4351;51.422;6.794;2023-05-03T06:26:01;102815.41;;;7.94;100.00
8627;BME280;4351;51.422;6.794;2023-05-03T06:28:29;102815.16;;;8.10;100.00
8627;BME280;4351;51.422;6.794;2023-05-03T06:30:58;102823.34;;;8.04;100.00
8627;BME280;4351;51.422;6.794;2023-05-03T06:33:28;102821.34;;;8.17;100.00
8627;BME280;4351;51.422;6.794;2023-05-03T06:35:56;102821.06;;;8.33;100.00
8627;BME280;4351;51.422;6.794;2023-05-03T06:38:25;102819.09;;;8.43;100.00
8627;BME280;4351;51.422;6.794;2023-05-03T06:40:52;102809.97;;;8.53;100.00
8627;BME280;4351;51.422;6.794;2023-05-03T06:43:21;102818.84;;;8.57;100.00
8627;BME280;4351;51.422;6.794;2023-05-03T06:45:54;102813.25;;;8.69;100.00
8627;BME280;4351;51.422;6.794;2023-05-03T06:48:22;102806.78;;;9.23;100.00
8627;BME280;4351;51.422;6.794;2023-05-03T06:50:52;102811.88;;;9.37;100.00
8627;BME280;4351;51.422;6.794;2023-05-03T06:53:19;102811.13;;;9.70;100.00
8627;BME280;4351;51.422;6.794;2023-05-03T06:55:47;102813.72;;;9.74;100.00
8627;BME280;4351;51.422;6.794;2023-05-03T06:58:15;102819.31;;;10.03;100.00
8627;BME280;4351;51.422;6.794;2023-05-03T07:00:43;102815.59;;;10.09;100.00
8627;BME280;4351;51.422;6.794;2023-05-03T07:03:12;102814.91;;;9.99;100.00
8627;BME280;4351;51.422;6.794;2023-05-03T07:05:40;102814.22;;;9.91;100.00
8627;BME280;4351;51.422;6.794;2023-05-03T07:08:09;102812.16;;;10.00;100.00
8627;BME280;4351;51.422;6.794;2023-05-03T07:10:36;102820.34;;;9.97;100.00
8627;BME280;4351;51.422;6.794;2023-05-03T07:13:04;102813.28;;;9.92;100.00
8627;BME280;4351;51.422;6.794;2023-05-03T07:15:32;102810.50;;;9.57;100.00
8627;BME280;4351;51.422;6.794;2023-05-03T07:18:00;102813.72;;;9.74;100.00
8627;BME280;4351;51.422;6.794;2023-05-03T07:20:28;102815.13;;;9.91;100.00
8627;BME280;4351;51.422;6.794;2023-05-03T07:22:56;102809.00;;;9.84;100.00
8627;BME280;4351;51.422;6.794;2023-05-03T07:25:25;102803.22;;;9.62;100.00
8627;BME280;4351;51.422;6.794;2023-05-03T07:27:53;102802.00;;;10.12;100.00
8627;BME280;4351;51.422;6.794;2023-05-03T07:30:21;102797.78;;;10.02;100.00
8627;BME280;4351;51.422;6.794;2023-05-03T07:32:50;102794.91;;;10.08;100.00
8627;BME280;4351;51.422;6.794;2023-05-03T07:35:18;102791.16;;;10.15;100.00
8627;BME280;4351;51.422;6.794;2023-05-03T07:37:45;102797.25;;;9.87;100.00
8627;BME280;4351;51.422;6.794;2023-05-03T07:40:13;102782.94;;;10.20;100.00
8627;BME280;4351;51.422;6.794;2023-05-03T07:42:45;102769.84;;;10.39;100.00
8627;BME280;4351;51.422;6.794;2023-05-03T07:45:13;102752.47;;;10.50;100.00
8627;BME280;4351;51.422;6.794;2023-05-03T07:47:41;102760.22;;;10.64;100.00
8627;BME280;4351;51.422;6.794;2023-05-03T07:50:09;102765.34;;;10.40;100.00
8627;BME280;4351;51.422;6.794;2023-05-03T07:52:38;102769.00;;;10.37;100.00
8627;BME280;4351;51.422;6.794;2023-05-03T07:55:08;102771.31;;;10.51;100.00
8627;BME280;4351;51.422;6.794;2023-05-03T07:57:36;102767.00;;;10.77;100.00
8627;BME280;4351;51.422;6.794;2023-05-03T08:00:06;102775.72;;;10.87;100.00
8627;BME280;4351;51.422;6.794;2023-05-03T08:02:39;102777.63;;;10.52;100.00
8627;BME280;4351;51.422;6.794;2023-05-03T08:05:09;102773.47;;;10.72;100.00
8627;BME280;4351;51.422;6.794;2023-05-03T08:07:40;102770.41;;;10.84;100.00
8627;BME280;4351;51.422;6.794;2023-05-03T08:10:09;102758.22;;;11.01;100.00
8627;BME280;4351;51.422;6.794;2023-05-03T08:12:37;102753.75;;;11.00;100.00
8627;BME280;4351;51.422;6.794;2023-05-03T08:15:07;102755.97;;;11.15;100.00
8627;BME280;4351;51.422;6.794;2023-05-03T08:17:39;102759.09;;;11.01;100.00
8627;BME280;4351;51.422;6.794;2023-05-03T08:20:08;102751.56;;;10.83;100.00
8627;BME280;4351;51.422;6.794;2023-05-03T08:22:37;102752.53;;;11.68;100.00
8627;BME280;4351;51.422;6.794;2023-05-03T08:25:06;102752.53;;;11.68;100.00
8627;BME280;4351;51.422;6.794;2023-05-03T08:27:34;102744.13;;;11.77;100.00
8627;BME280;4351;51.422;6.794;2023-05-03T08:30:03;102759.31;;;11.53;100.00
8627;BME280;4351;51.422;6.794;2023-05-03T08:32:33;102749.59;;;11.47;100.00
8627;BME280;4351;51.422;6.794;2023-05-03T08:35:01;102733.28;;;11.50;100.00
8627;BME280;4351;51.422;6.794;2023-05-03T08:37:37;102732.16;;;11.84;100.00
8627;BME280;4351;51.422;6.794;2023-05-03T08:40:06;102719.75;;;12.04;100.00
8627;BME280;4351;51.422;6.794;2023-05-03T08:42:38;102727.47;;;11.90;100.00
8627;BME280;4351;51.422;6.794;2023-05-03T08:45:09;102729.94;;;11.96;100.00
8627;BME280;4351;51.422;6.794;2023-05-03T08:47:38;102730.00;;;11.94;100.00
8627;BME280;4351;51.422;6.794;2023-05-03T08:50:08;102728.31;;;11.65;100.00
8627;BME280;4351;51.422;6.794;2023-05-03T08:52:38;102744.69;;;11.60;100.00
8627;BME280;4351;51.422;6.794;2023-05-03T08:55:07;102733.66;;;11.93;100.00
8627;BME280;4351;51.422;6.794;2023-05-03T08:57:35;102729.88;;;12.25;100.00
8627;BME280;4351;51.422;6.794;2023-05-03T09:00:04;102719.50;;;12.38;100.00
8627;BME280;4351;51.422;6.794;2023-05-03T09:02:37;102717.00;;;12.32;100.00
8627;BME280;4351;51.422;6.794;2023-05-03T09:05:33;102718.31;;;12.21;100.00
8627;BME280;4351;51.422;6.794;2023-05-03T09:08:03;102714.25;;;12.33;100.00
8627;BME280;4351;51.422;6.794;2023-05-03T09:10:32;102719.50;;;12.12;100.00
8627;BME280;4351;51.422;6.794;2023-05-03T09:13:01;102713.25;;;12.36;100.00
8627;BME280;4351;51.422;6.794;2023-05-03T09:15:29;102720.28;;;12.41;100.00
8627;BME280;4351;51.422;6.794;2023-05-03T09:18:10;102726.56;;;11.89;100.00
8627;BME280;4351;51.422;6.794;2023-05-03T09:20:40;102725.28;;;11.74;100.00
8627;BME280;4351;51.422;6.794;2023-05-03T09:23:08;102716.28;;;12.26;100.00
8627;BME280;4351;51.422;6.794;2023-05-03T09:25:44;102709.13;;;11.98;100.00
8627;BME280;4351;51.422;6.794;2023-05-03T09:28:12;102703.25;;;11.87;100.00
8627;BME280;4351;51.422;6.794;2023-05-03T09:30:41;102710.09;;;11.97;100.00
8627;BME280;4351;51.422;6.794;2023-05-03T09:33:10;102702.50;;;12.07;100.00
8627;BME280;4351;51.422;6.794;2023-05-03T09:35:54;102708.78;;;12.35;100.00
8627;BME280;4351;51.422;6.794;2023-05-03T09:38:25;102709.78;;;12.32;100.00
8627;BME280;4351;51.422;6.794;2023-05-03T09:40:53;102704.66;;;12.48;100.00
8627;BME280;4351;51.422;6.794;2023-05-03T09:43:21;102698.56;;;12.43;100.00
8627;BME280;4351;51.422;6.794;2023-05-03T09:45:49;102700.50;;;12.39;100.00
8627;BME280;4351;51.422;6.794;2023-05-03T09:48:19;102693.03;;;12.70;100.00
8627;BME280;4351;51.422;6.794;2023-05-03T09:50:49;102695.03;;;12.41;100.00
8627;BME280;4351;51.422;6.794;2023-05-03T09:53:18;102691.75;;;12.05;100.00
8627;BME280;4351;51.422;6.794;2023-05-03T09:55:48;102686.19;;;12.60;100.00
8627;BME280;4351;51.422;6.794;2023-05-03T09:58:17;102675.69;;;12.52;100.00
8627;BME280;4351;51.422;6.794;2023-05-03T10:00:47;102685.03;;;12.43;100.00
8627;BME280;4351;51.422;6.794;2023-05-03T10:03:22;102686.72;;;11.94;100.00
8627;BME280;4351;51.422;6.794;2023-05-03T10:05:51;102678.13;;;12.34;100.00
8627;BME280;4351;51.422;6.794;2023-05-03T10:08:25;102661.84;;;12.60;100.00
8627;BME280;4351;51.422;6.794;2023-05-03T10:10:54;102661.38;;;12.72;100.00
8627;BME280;4351;51.422;6.794;2023-05-03T10:13:23;102659.03;;;12.63;100.00
8627;BME280;4351;51.422;6.794;2023-05-03T10:15:55;102658.53;;;12.75;100.00
8627;BME280;4351;51.422;6.794;2023-05-03T10:18:29;102652.19;;;12.76;100.00
8627;BME280;4351;51.422;6.794;2023-05-03T10:21:01;102647.19;;;12.88;100.00
8627;BME280;4351;51.422;6.794;2023-05-03T10:23:30;102653.44;;;13.13;100.00
8627;BME280;4351;51.422;6.794;2023-05-03T10:26:14;102668.88;;;12.64;100.00
8627;BME280;4351;51.422;6.794;2023-05-03T10:28:43;102663.66;;;12.83;100.00
8627;BME280;4351;51.422;6.794;2023-05-03T10:31:42;102654.84;;;13.01;100.00
8627;BME280;4351;51.422;6.794;2023-05-03T10:34:21;102656.03;;;13.16;100.00
8627;BME280;4351;51.422;6.794;2023-05-03T10:36:50;102657.31;;;13.29;100.00
8627;BME280;4351;51.422;6.794;2023-05-03T10:39:19;102649.47;;;13.21;100.00
8627;BME280;4351;51.422;6.794;2023-05-03T10:41:57;102654.59;;;13.07;100.00
8627;BME280;4351;51.422;6.794;2023-05-03T10:44:28;102659.25;;;13.26;100.00
8627;BME280;4351;51.422;6.794;2023-05-03T10:47:09;102663.22;;;13.17;100.00
8627;BME280;4351;51.422;6.794;2023-05-03T10:49:38;102647.69;;;13.43;100.00
8627;BME280;4351;51.422;6.794;2023-05-03T10:55:08;102637.97;;;13.16;100.00
8627;BME280;4351;51.422;6.794;2023-05-03T10:57:37;102648.22;;;13.30;100.00
8627;BME280;4351;51.422;6.794;2023-05-03T11:00:11;102624.53;;;13.13;100.00
8627;BME280;4351;51.422;6.794;2023-05-03T11:02:42;102632.13;;;13.48;100.00
8627;BME280;4351;51.422;6.794;2023-05-03T11:05:20;102642.78;;;13.08;100.00
8627;BME280;4351;51.422;6.794;2023-05-03T11:07:49;102637.56;;;13.26;100.00
8627;BME280;4351;51.422;6.794;2023-05-03T11:10:18;102611.69;;;13.39;100.00
8627;BME280;4351;51.422;6.794;2023-05-03T11:12:47;102610.16;;;13.33;100.00
8627;BME280;4351;51.422;6.794;2023-05-03T11:15:15;102604.81;;;13.53;100.00
8627;BME280;4351;51.422;6.794;2023-05-03T11:17:43;102597.38;;;13.58;100.00
8627;BME280;4351;51.422;6.794;2023-05-03T11:20:11;102593.97;;;13.74;100.00
8627;BME280;4351;51.422;6.794;2023-05-03T11:22:41;102577.44;;;13.59;100.00
8627;BME280;4351;51.422;6.794;2023-05-03T11:25:09;102570.94;;;13.63;100.00
8627;BME280;4351;51.422;6.794;2023-05-03T11:27:39;102584.38;;;13.66;100.00
8627;BME280;4351;51.422;6.794;2023-05-03T11:30:08;102580.69;;;13.67;100.00
8627;BME280;4351;51.422;6.794;2023-05-03T11:32:36;102590.97;;;13.80;100.00
8627;BME280;4351;51.422;6.794;2023-05-03T11:35:05;102567.00;;;13.71;100.00
8627;BME280;4351;51.422;6.794;2023-05-03T11:37:33;102563.16;;;14.15;100.00
8627;BME280;4351;51.422;6.794;2023-05-03T11:40:03;102575.50;;;13.82;100.00
8627;BME280;4351;51.422;6.794;2023-05-03T11:42:32;102577.72;;;14.14;100.00
8627;BME280;4351;51.422;6.794;2023-05-03T11:45:00;102582.25;;;14.13;100.00
8627;BME280;4351;51.422;6.794;2023-05-03T11:47:30;102541.50;;;14.34;100.00
8627;BME280;4351;51.422;6.794;2023-05-03T11:49:58;102543.22;;;13.97;100.00
8627;BME280;4351;51.422;6.794;2023-05-03T11:52:26;102545.22;;;14.12;100.00
8627;BME280;4351;51.422;6.794;2023-05-03T11:54:54;102554.59;;;14.44;100.00
8627;BME280;4351;51.422;6.794;2023-05-03T11:57:24;102549.53;;;14.36;100.00
8627;BME280;4351;51.422;6.794;2023-05-03T11:59:52;102553.22;;;14.54;100.00
8627;BME280;4351;51.422;6.794;2023-05-03T12:02:21;102563.28;;;14.52;100.00
8627;BME280;4351;51.422;6.794;2023-05-03T12:04:51;102527.31;;;14.47;100.00
8627;BME280;4351;51.422;6.794;2023-05-03T12:07:20;102530.97;;;14.65;100.00
8627;BME280;4351;51.422;6.794;2023-05-03T12:09:51;102549.06;;;14.84;100.00
8627;BME280;4351;51.422;6.794;2023-05-03T12:12:49;102519.75;;;14.54;100.00
8627;BME280;4351;51.422;6.794;2023-05-03T12:15:27;102509.72;;;14.74;100.00
8627;BME280;4351;51.422;6.794;2023-05-03T12:17:57;102533.81;;;14.99;100.00
8627;BME280;4351;51.422;6.794;2023-05-03T12:20:27;102520.56;;;15.28;100.00
8627;BME280;4351;51.422;6.794;2023-05-03T12:25:52;102502.91;;;15.20;100.00
8627;BME280;4351;51.422;6.794;2023-05-03T12:28:24;102480.03;;;15.58;100.00
8627;BME280;4351;51.422;6.794;2023-05-03T12:30:52;102496.91;;;15.31;100.00
8627;BME280;4351;51.422;6.794;2023-05-03T12:33:23;102487.84;;;15.48;100.00
8627;BME280;4351;51.422;6.794;2023-05-03T12:35:54;102451.44;;;15.50;100.00
8627;BME280;4351;51.422;6.794;2023-05-03T12:38:24;102454.09;;;15.68;100.00
8627;BME280;4351;51.422;6.794;2023-05-03T12:40:56;102451.94;;;15.41;100.00
8627;BME280;4351;51.422;6.794;2023-05-03T12:43:26;102458.06;;;15.45;100.00
8627;BME280;4351;51.422;6.794;2023-05-03T12:45:54;102432.94;;;15.73;100.00
8627;BME280;4351;51.422;6.794;2023-05-03T12:48:29;102419.75;;;15.49;100.00
8627;BME280;4351;51.422;6.794;2023-05-03T12:50:58;102415.09;;;15.51;100.00
8627;BME280;4351;51.422;6.794;2023-05-03T12:53:44;102427.91;;;15.49;100.00
8627;BME280;4351;51.422;6.794;2023-05-03T12:56:13;102413.31;;;15.68;100.00
8627;BME280;4351;51.422;6.794;2023-05-03T12:58:43;102410.94;;;15.78;100.00
8627;BME280;4351;51.422;6.794;2023-05-03T13:01:18;102415.03;;;15.53;100.00
8627;BME280;4351;51.422;6.794;2023-05-03T13:04:06;102407.72;;;15.54;100.00
8627;BME280;4351;51.422;6.794;2023-05-03T13:06:54;102419.59;;;15.52;100.00
8627;BME280;4351;51.422;6.794;2023-05-03T13:09:26;102376.59;;;15.43;100.00
8627;BME280;4351;51.422;6.794;2023-05-03T13:12:14;102391.16;;;15.42;100.00
8627;BME280;4351;51.422;6.794;2023-05-03T13:14:45;102396.19;;;15.82;100.00
8627;BME280;4351;51.422;6.794;2023-05-03T13:17:13;102368.91;;;15.84;100.00
8627;BME280;4351;51.422;6.794;2023-05-03T13:19:42;102408.06;;;16.14;100.00
8627;BME280;4351;51.422;6.794;2023-05-03T13:22:10;102408.13;;;16.28;100.00
8627;BME280;4351;51.422;6.794;2023-05-03T13:24:39;102402.09;;;16.07;100.00
8627;BME280;4351;51.422;6.794;2023-05-03T13:27:07;102327.28;;;16.14;100.00